createdAt,value
2022-11-18T00:00:58.641Z,21.40
2022-11-18T00:03:27.749Z,21.40
2022-11-18T00:05:55.598Z,21.40
2022-11-18T00:08:23.343Z,21.40
2022-11-18T00:10:51.308Z,21.40
2022-11-18T00:13:37.179Z,21.40
2022-11-18T00:16:05.387Z,21.40
2022-11-18T00:18:34.621Z,21.40
2022-11-18T00:21:03.132Z,21.50
2022-11-18T00:23:30.915Z,21.50
2022-11-18T00:26:03.057Z,21.50
2022-11-18T00:28:31.329Z,21.50
2022-11-18T00:31:03.716Z,21.50
2022-11-18T00:33:31.622Z,21.60
2022-11-18T00:36:00.600Z,21.60
2022-11-18T00:38:28.249Z,21.60
2022-11-18T00:41:02.135Z,21.60
2022-11-18T00:43:29.361Z,21.60
2022-11-18T00:45:57.090Z,21.60
2022-11-18T00:48:24.756Z,21.60
2022-11-18T00:50:52.719Z,21.70
2022-11-18T00:53:22.200Z,21.70
2022-11-18T00:55:50.524Z,21.70
2022-11-18T00:58:18.232Z,21.70
2022-11-18T01:00:48.404Z,21.80
2022-11-18T01:03:16.074Z,21.80
2022-11-18T01:05:43.745Z,21.80
2022-11-18T01:08:11.944Z,21.80
2022-11-18T01:10:41.455Z,21.90
2022-11-18T01:13:20.289Z,21.90
2022-11-18T01:15:48.851Z,21.90
2022-11-18T01:18:16.647Z,21.90
2022-11-18T01:20:44.557Z,21.90
2022-11-18T01:23:12.401Z,22.00
2022-11-18T01:25:42.175Z,22.00
2022-11-18T01:28:09.991Z,22.00
2022-11-18T01:30:38.472Z,22.00
2022-11-18T01:33:06.213Z,22.10
2022-11-18T01:35:35.756Z,22.10
2022-11-18T01:38:03.807Z,22.10
2022-11-18T01:40:31.754Z,22.20
2022-11-18T01:43:00.728Z,22.20
2022-11-18T01:45:31.394Z,22.20
2022-11-18T01:48:01.547Z,22.20
2022-11-18T01:50:29.439Z,22.20
2022-11-18T01:52:58.907Z,22.30
2022-11-18T01:55:27.765Z,22.30
2022-11-18T01:58:03.014Z,22.30
2022-11-18T02:00:30.711Z,22.40
2022-11-18T02:02:58.403Z,22.40
2022-11-18T02:05:26.052Z,22.40
2022-11-18T02:07:53.751Z,22.40
2022-11-18T02:10:23.081Z,22.40
2022-11-18T02:12:50.968Z,22.40
2022-11-18T02:15:20.784Z,22.50
2022-11-18T02:17:52.709Z,22.50
2022-11-18T02:20:34.145Z,22.60
2022-11-18T02:23:16.275Z,22.60
2022-11-18T02:25:48.794Z,22.60
2022-11-18T02:28:26.381Z,22.70
2022-11-18T02:30:59.010Z,22.70
2022-11-18T02:33:29.318Z,22.70
2022-11-18T02:35:59.288Z,22.70
2022-11-18T02:38:28.838Z,22.80
2022-11-18T02:40:57.646Z,22.80
2022-11-18T02:43:26.574Z,22.80
2022-11-18T02:45:57.323Z,22.80
2022-11-18T02:48:25.793Z,22.90
2022-11-18T02:50:53.509Z,22.90
2022-11-18T02:53:21.952Z,22.90
2022-11-18T02:55:49.661Z,22.90
2022-11-18T02:58:18.502Z,22.90
2022-11-18T03:00:46.170Z,23.00
2022-11-18T03:03:26.839Z,23.00
2022-11-18T03:05:59.269Z,23.00
2022-11-18T03:08:27.137Z,23.00
2022-11-18T03:11:04.650Z,23.00
2022-11-18T03:13:35.378Z,23.00
2022-11-18T03:16:04.842Z,23.00
2022-11-18T03:18:34.764Z,23.10
2022-11-18T03:21:06.456Z,23.10
2022-11-18T03:23:36.991Z,23.10
2022-11-18T03:26:06.248Z,23.10
2022-11-18T03:28:37.007Z,23.10
2022-11-18T03:31:07.108Z,23.20
2022-11-18T03:33:37.099Z,23.20
2022-11-18T03:36:06.456Z,23.20
2022-11-18T03:38:35.916Z,23.20
2022-11-18T03:41:05.257Z,23.20
2022-11-18T03:43:35.268Z,23.20
2022-11-18T03:46:05.920Z,23.20
2022-11-18T03:48:36.958Z,23.30
2022-11-18T03:51:07.399Z,23.20
2022-11-18T03:53:36.698Z,23.20
2022-11-18T03:56:06.646Z,23.20
2022-11-18T03:58:35.592Z,23.30
2022-11-18T04:01:15.461Z,23.30
2022-11-18T04:03:44.559Z,23.20
2022-11-18T04:06:16.929Z,23.20
2022-11-18T04:08:45.866Z,23.30
2022-11-18T04:11:34.924Z,23.30
2022-11-18T04:14:02.625Z,23.30
2022-11-18T04:16:30.283Z,23.30
2022-11-18T04:19:05.696Z,23.30
2022-11-18T04:21:33.923Z,23.30
2022-11-18T04:24:01.589Z,23.30
2022-11-18T04:26:29.221Z,23.30
2022-11-18T04:28:56.854Z,23.30
2022-11-18T04:31:24.497Z,23.30
2022-11-18T04:33:52.133Z,23.30
2022-11-18T04:36:21.139Z,23.30
2022-11-18T04:38:48.857Z,23.30
2022-11-18T04:41:16.510Z,23.30
2022-11-18T04:43:44.166Z,23.30
2022-11-18T04:46:11.816Z,23.30
2022-11-18T04:48:39.466Z,23.20
2022-11-18T04:51:07.259Z,23.30
2022-11-18T04:53:36.225Z,23.30
2022-11-18T04:56:07.690Z,23.30
2022-11-18T04:58:35.332Z,23.30
2022-11-18T05:01:03.035Z,23.20
2022-11-18T05:03:30.692Z,23.20
2022-11-18T05:05:58.374Z,23.30
2022-11-18T05:08:26.044Z,23.20
2022-11-18T05:11:15.557Z,23.30
2022-11-18T05:13:42.293Z,23.20
2022-11-18T05:16:09.948Z,23.20
2022-11-18T05:18:37.595Z,23.20
2022-11-18T05:21:06.319Z,23.20
2022-11-18T05:23:33.965Z,23.20
2022-11-18T05:26:05.310Z,23.20
2022-11-18T05:28:33.001Z,23.20
2022-11-18T05:31:00.656Z,23.20
2022-11-18T05:33:28.336Z,23.20
2022-11-18T05:35:56.018Z,23.20
2022-11-18T05:38:23.685Z,23.20
2022-11-18T05:40:51.387Z,23.20
2022-11-18T05:43:19.442Z,23.20
2022-11-18T05:45:47.122Z,23.20
2022-11-18T05:48:14.764Z,23.20
2022-11-18T05:50:42.402Z,23.20
2022-11-18T05:53:10.038Z,23.20
2022-11-18T05:55:41.051Z,23.10
2022-11-18T05:58:08.747Z,23.10
2022-11-18T06:00:37.712Z,23.10
2022-11-18T06:03:05.759Z,23.10
2022-11-18T06:05:33.444Z,23.10
2022-11-18T06:08:01.094Z,23.10
2022-11-18T06:10:31.143Z,23.10
2022-11-18T06:13:00.290Z,23.10
2022-11-18T06:15:28.828Z,23.10
2022-11-18T06:17:59.808Z,23.10
2022-11-18T06:20:27.542Z,23.00
2022-11-18T06:22:56.869Z,23.00
2022-11-18T06:25:24.554Z,23.00
2022-11-18T06:27:52.518Z,23.00
2022-11-18T06:30:20.231Z,23.00
2022-11-18T06:32:47.898Z,23.00
2022-11-18T06:35:16.926Z,23.00
2022-11-18T06:37:44.630Z,23.00
2022-11-18T06:40:13.335Z,23.00
2022-11-18T06:42:58.841Z,23.00
2022-11-18T06:45:26.536Z,23.00
2022-11-18T06:47:57.675Z,22.90
2022-11-18T06:50:26.664Z,22.90
2022-11-18T06:52:54.394Z,22.90
2022-11-18T06:55:22.047Z,22.90
2022-11-18T06:57:49.716Z,22.90
2022-11-18T07:00:18.357Z,22.90
2022-11-18T07:02:46.029Z,22.90
2022-11-18T07:05:13.667Z,22.80
2022-11-18T07:07:42.765Z,22.80
2022-11-18T07:10:10.936Z,22.80
2022-11-18T07:12:38.615Z,22.80
2022-11-18T07:15:06.965Z,22.80
2022-11-18T07:17:34.618Z,22.80
2022-11-18T07:20:02.319Z,22.80
2022-11-18T07:22:29.985Z,22.70
2022-11-18T07:24:58.978Z,22.70
2022-11-18T07:27:26.634Z,22.70
2022-11-18T07:29:54.291Z,22.70
2022-11-18T07:32:21.938Z,22.70
2022-11-18T07:34:49.698Z,22.70
2022-11-18T07:37:17.451Z,22.70
2022-11-18T07:39:45.083Z,22.70
2022-11-18T07:42:14.065Z,22.70
2022-11-18T07:44:41.726Z,22.70
2022-11-18T07:47:09.427Z,22.70
2022-11-18T07:49:37.082Z,22.70
2022-11-18T07:52:04.977Z,22.60
2022-11-18T07:54:32.637Z,22.70
2022-11-18T07:57:00.325Z,22.60
2022-11-18T07:59:29.349Z,22.60
2022-11-18T08:01:57.467Z,22.60
2022-11-18T08:04:25.190Z,22.60
2022-11-18T08:06:52.930Z,22.60
2022-11-18T08:09:20.771Z,22.60
2022-11-18T08:11:48.482Z,22.60
2022-11-18T08:14:16.141Z,22.60
2022-11-18T08:16:45.135Z,22.50
2022-11-18T08:19:12.800Z,22.60
2022-11-18T08:21:40.460Z,22.60
2022-11-18T08:24:10.008Z,22.60
2022-11-18T08:26:37.686Z,22.50
2022-11-18T08:29:05.373Z,22.50
2022-11-18T08:31:33.050Z,22.50
2022-11-18T08:34:03.246Z,22.50
2022-11-18T08:36:32.432Z,22.50
2022-11-18T08:39:01.543Z,22.50
2022-11-18T08:41:30.628Z,22.50
2022-11-18T08:43:58.295Z,22.50
2022-11-18T08:46:25.941Z,22.50
2022-11-18T08:48:53.570Z,22.40
2022-11-18T08:51:22.541Z,22.40
2022-11-18T08:53:50.221Z,22.40
2022-11-18T08:56:19.225Z,22.40
2022-11-18T08:58:46.933Z,22.40
2022-11-18T09:01:14.704Z,22.40
2022-11-18T09:03:42.517Z,22.40
2022-11-18T09:06:11.080Z,22.40
2022-11-18T09:08:40.245Z,22.40
2022-11-18T09:11:08.391Z,22.40
2022-11-18T09:19:46.065Z,22.40
2022-11-18T09:21:59.608Z,22.40
2022-11-18T09:24:28.592Z,22.40
2022-11-18T09:26:56.242Z,22.40
2022-11-18T09:29:26.102Z,22.30
2022-11-18T09:31:53.929Z,22.40
2022-11-18T09:34:21.735Z,22.40
2022-11-18T09:36:49.408Z,22.40
2022-11-18T09:39:17.384Z,22.40
2022-11-18T09:41:47.495Z,22.40
2022-11-18T09:44:24.946Z,22.30
2022-11-18T09:46:59.438Z,22.40
2022-11-18T09:49:28.359Z,22.30
2022-11-18T09:51:56.015Z,22.30
2022-11-18T09:54:24.590Z,22.30
2022-11-18T09:56:54.389Z,22.30
2022-11-18T09:59:23.399Z,22.30
2022-11-18T10:01:51.298Z,22.30
2022-11-18T10:04:20.336Z,22.30
2022-11-18T10:06:48.999Z,22.30
2022-11-18T10:09:38.707Z,22.30
2022-11-18T10:12:16.001Z,22.30
2022-11-18T10:14:56.690Z,22.30
2022-11-18T10:17:32.472Z,22.30
2022-11-18T10:20:09.207Z,22.30
2022-11-18T10:22:41.087Z,22.30
2022-11-18T10:25:11.567Z,22.20
2022-11-18T10:27:41.283Z,22.30
2022-11-18T10:30:13.205Z,22.30
2022-11-18T10:32:54.539Z,22.30
2022-11-18T10:35:25.559Z,22.30
2022-11-18T10:38:07.937Z,22.30
2022-11-18T10:40:36.214Z,22.30
2022-11-18T10:43:05.251Z,22.20
2022-11-18T10:45:33.358Z,22.30
2022-11-18T10:48:03.161Z,22.20
2022-11-18T10:50:33.054Z,22.20
2022-11-18T10:53:00.811Z,22.20
2022-11-18T10:55:29.081Z,22.20
2022-11-18T10:57:59.116Z,22.20
2022-11-18T11:00:44.640Z,22.20
2022-11-18T11:03:34.899Z,22.20
2022-11-18T11:06:16.625Z,22.20
2022-11-18T11:08:49.127Z,22.20
2022-11-18T11:11:25.899Z,22.20
2022-11-18T11:13:55.541Z,22.20
2022-11-18T11:16:26.429Z,22.20
2022-11-18T11:18:56.047Z,22.20
2022-11-18T11:21:25.336Z,22.20
2022-11-18T11:23:53.062Z,22.10
2022-11-18T11:29:14.980Z,22.10
2022-11-18T11:31:47.724Z,22.10
2022-11-18T11:34:19.196Z,22.10
2022-11-18T11:36:48.558Z,22.10
2022-11-18T11:39:39.145Z,22.10
2022-11-18T11:42:09.520Z,22.10
2022-11-18T11:44:42.953Z,22.00
2022-11-18T11:47:36.201Z,22.00
2022-11-18T11:50:09.684Z,22.00
2022-11-18T11:52:41.351Z,22.00
2022-11-18T11:55:17.780Z,22.00
2022-11-18T11:57:52.792Z,22.00
2022-11-18T12:00:20.687Z,22.00
2022-11-18T12:03:11.879Z,22.00
2022-11-18T12:05:43.055Z,22.00
2022-11-18T12:08:12.555Z,22.00
2022-11-18T12:10:45.180Z,22.00
2022-11-18T12:13:21.838Z,22.10
2022-11-18T12:15:54.266Z,22.20
2022-11-18T12:18:25.386Z,22.20
2022-11-18T12:20:53.228Z,22.30
2022-11-18T12:23:22.581Z,22.40
2022-11-18T12:25:54.950Z,22.40
2022-11-18T12:28:27.413Z,22.50
2022-11-18T12:31:33.400Z,22.50
2022-11-18T12:34:04.616Z,22.60
2022-11-18T12:36:33.371Z,22.60
2022-11-18T12:39:24.018Z,22.60
2022-11-18T12:42:13.682Z,22.60
2022-11-18T12:44:41.845Z,22.70
2022-11-18T12:47:09.707Z,22.70
2022-11-18T12:50:12.589Z,22.70
2022-11-18T12:52:47.531Z,22.80
2022-11-18T12:55:17.018Z,22.80
2022-11-18T12:57:44.910Z,22.90
2022-11-18T13:00:28.724Z,22.90
2022-11-18T13:02:57.736Z,22.90
2022-11-18T13:05:27.445Z,22.90
2022-11-18T13:08:14.131Z,22.90
2022-11-18T13:10:45.337Z,22.90
2022-11-18T13:13:20.295Z,22.90
2022-11-18T13:16:09.520Z,22.90
2022-11-18T13:18:48.504Z,23.00
2022-11-18T13:21:41.019Z,23.10
2022-11-18T13:24:11.804Z,23.10
2022-11-18T13:26:40.355Z,23.10
2022-11-18T13:29:32.822Z,23.00
2022-11-18T13:32:06.409Z,23.10
2022-11-18T13:34:46.460Z,23.10
2022-11-18T13:37:18.509Z,23.20
2022-11-18T13:39:46.380Z,23.20
2022-11-18T13:42:19.056Z,23.20
2022-11-18T13:44:47.915Z,23.20
2022-11-18T13:47:25.294Z,23.20
2022-11-18T13:49:55.070Z,23.30
2022-11-18T13:52:25.383Z,23.30
2022-11-18T13:54:53.147Z,23.30
2022-11-18T13:57:21.425Z,23.30
2022-11-18T13:59:50.226Z,23.30
2022-11-18T14:02:18.687Z,23.30
2022-11-18T14:04:50.679Z,23.30
2022-11-18T14:07:27.257Z,23.40
2022-11-18T14:09:55.813Z,23.40
2022-11-18T14:12:24.839Z,23.30
2022-11-18T14:14:52.939Z,23.20
2022-11-18T14:17:21.351Z,23.20
2022-11-18T14:19:50.162Z,23.10
2022-11-18T14:22:19.329Z,23.10
2022-11-18T14:24:56.186Z,23.10
2022-11-18T14:27:40.569Z,23.10
2022-11-18T14:30:31.468Z,23.00
2022-11-18T14:33:12.685Z,23.00
2022-11-18T14:35:40.445Z,23.00
2022-11-18T14:41:09.418Z,23.00
2022-11-18T14:43:37.151Z,23.00
2022-11-18T14:46:06.400Z,23.00
2022-11-18T14:48:34.035Z,23.00
2022-11-18T14:51:02.006Z,23.00
2022-11-18T14:53:29.738Z,23.00
2022-11-18T14:55:58.091Z,23.00
2022-11-18T14:58:27.186Z,23.10
2022-11-18T15:00:55.140Z,23.00
2022-11-18T15:03:23.025Z,23.10
2022-11-18T15:05:50.795Z,23.10
2022-11-18T15:08:18.472Z,23.10
2022-11-18T15:10:46.172Z,23.10
2022-11-18T15:13:13.889Z,23.20
2022-11-18T15:15:43.065Z,23.20
2022-11-18T15:18:10.739Z,23.20
2022-11-18T15:20:38.415Z,23.20
2022-11-18T15:23:06.085Z,23.20
2022-11-18T15:25:33.822Z,23.20
2022-11-18T15:28:01.494Z,23.20
2022-11-18T15:30:29.296Z,23.20
2022-11-18T15:33:03.224Z,23.20
2022-11-18T15:35:30.971Z,23.20
2022-11-18T15:37:58.657Z,23.20
2022-11-18T15:40:26.303Z,23.20
2022-11-18T15:42:54.000Z,23.30
2022-11-18T15:45:21.649Z,23.30
2022-11-18T15:47:49.334Z,23.30
2022-11-18T15:50:18.615Z,23.30
2022-11-18T15:52:46.411Z,23.30
2022-11-18T15:55:15.613Z,23.30
2022-11-18T15:57:43.302Z,23.30
2022-11-18T16:00:12.175Z,23.30
2022-11-18T16:02:45.059Z,23.30
2022-11-18T16:05:13.369Z,23.30
2022-11-18T16:07:42.442Z,23.20
2022-11-18T16:10:28.608Z,23.20
2022-11-18T16:12:56.276Z,23.20
2022-11-18T16:15:41.496Z,23.20
2022-11-18T16:18:09.266Z,23.20
2022-11-18T16:20:38.105Z,23.20
2022-11-18T16:23:07.139Z,23.20
2022-11-18T16:25:34.812Z,23.20
2022-11-18T16:28:07.328Z,23.10
2022-11-18T16:30:49.444Z,23.10
2022-11-18T16:33:17.179Z,23.10
2022-11-18T16:35:48.577Z,23.00
2022-11-18T16:38:17.619Z,23.00
2022-11-18T16:40:45.297Z,23.10
2022-11-18T16:43:13.013Z,23.00
2022-11-18T16:45:40.927Z,23.00
2022-11-18T16:48:08.629Z,23.00
2022-11-18T16:50:36.309Z,23.00
2022-11-18T16:53:04.111Z,23.00
2022-11-18T16:55:33.087Z,23.00
2022-11-18T16:58:00.747Z,23.00
2022-11-18T17:00:59.984Z,23.00
2022-11-18T17:03:16.194Z,23.00
2022-11-18T17:05:43.843Z,22.90
2022-11-18T17:08:11.520Z,22.90
2022-11-18T17:10:40.522Z,22.90
2022-11-18T17:13:08.191Z,22.90
2022-11-18T17:15:36.492Z,22.90
2022-11-18T17:18:04.323Z,23.00
2022-11-18T17:20:31.999Z,23.00
2022-11-18T17:22:59.675Z,23.00
2022-11-18T17:25:27.387Z,22.90
2022-11-18T17:27:56.407Z,22.90
2022-11-18T17:30:24.166Z,22.90
2022-11-18T17:32:51.961Z,22.90
2022-11-18T17:35:19.634Z,22.80
2022-11-18T17:37:47.315Z,22.80
2022-11-18T17:40:15.150Z,22.60
2022-11-18T17:42:42.895Z,22.30
2022-11-18T17:45:11.970Z,21.60
2022-11-18T17:47:39.672Z,21.30
2022-11-18T17:50:08.137Z,20.90
2022-11-18T17:52:35.819Z,20.60
2022-11-18T17:55:03.655Z,20.20
2022-11-18T17:57:31.344Z,20.00
2022-11-18T17:59:58.993Z,20.20
2022-11-18T18:02:28.051Z,20.30
2022-11-18T18:04:57.927Z,20.40
2022-11-18T18:07:25.713Z,20.50
2022-11-18T18:09:53.443Z,20.60
2022-11-18T18:12:50.376Z,20.70
2022-11-18T18:15:18.184Z,20.80
2022-11-18T18:17:49.092Z,20.80
2022-11-18T18:20:16.783Z,20.80
2022-11-18T18:22:44.483Z,20.90
2022-11-18T18:25:12.680Z,20.90
2022-11-18T18:27:40.573Z,20.90
2022-11-18T18:30:09.413Z,21.00
2022-11-18T18:32:37.077Z,21.00
2022-11-18T18:35:06.999Z,20.90
2022-11-18T18:37:35.899Z,21.00
2022-11-18T18:40:03.598Z,21.00
2022-11-18T18:42:31.287Z,21.00
2022-11-18T18:45:16.782Z,21.00
2022-11-18T18:47:44.458Z,21.00
2022-11-18T18:50:13.455Z,21.00
2022-11-18T18:52:41.156Z,21.10
2022-11-18T18:55:09.343Z,21.00
2022-11-18T18:57:37.400Z,21.00
2022-11-18T19:00:05.904Z,21.00
2022-11-18T19:02:33.555Z,21.00
2022-11-18T19:05:01.207Z,21.00
2022-11-18T19:07:31.291Z,21.00
2022-11-18T19:09:59.188Z,21.00
2022-11-18T19:12:43.989Z,21.00
2022-11-18T19:15:12.766Z,21.00
2022-11-18T19:17:40.648Z,21.00
2022-11-18T19:20:26.596Z,21.00
2022-11-18T19:22:55.649Z,21.00
2022-11-18T19:25:23.466Z,21.00
2022-11-18T19:27:51.134Z,21.00
2022-11-18T19:30:18.943Z,21.00
2022-11-18T19:32:46.650Z,21.00
2022-11-18T19:35:14.644Z,21.00
2022-11-18T19:37:42.286Z,21.00
2022-11-18T19:40:12.370Z,21.10
2022-11-18T19:42:41.868Z,21.10
2022-11-18T19:45:10.041Z,21.10
2022-11-18T19:47:37.874Z,21.10
2022-11-18T19:50:06.348Z,21.10
2022-11-18T19:52:34.098Z,21.20
2022-11-18T19:55:01.784Z,21.20
2022-11-18T19:57:30.778Z,21.30
2022-11-18T19:59:58.470Z,21.40
2022-11-18T20:02:26.184Z,21.40
2022-11-18T20:05:11.628Z,21.40
2022-11-18T20:07:39.343Z,21.50
2022-11-18T20:10:09.196Z,21.50
2022-11-18T20:12:38.233Z,21.60
2022-11-18T20:15:06.866Z,21.60
2022-11-18T20:17:34.557Z,21.60
2022-11-18T20:20:02.375Z,21.60
2022-11-18T20:22:30.136Z,21.70
2022-11-18T20:24:57.835Z,21.60
2022-11-18T20:27:25.563Z,21.70
2022-11-18T20:29:55.736Z,21.80
2022-11-18T20:32:23.415Z,21.80
2022-11-18T20:34:51.172Z,21.80
2022-11-18T20:37:22.324Z,21.80
2022-11-18T20:39:53.207Z,21.80
2022-11-18T20:42:38.418Z,21.80
2022-11-18T20:45:08.500Z,21.90
2022-11-18T20:47:36.186Z,21.80
2022-11-18T20:50:03.988Z,21.90
2022-11-18T20:52:33.807Z,21.90
2022-11-18T20:55:05.601Z,21.90
2022-11-18T20:57:33.636Z,21.90
2022-11-18T21:00:01.371Z,21.90
2022-11-18T21:02:30.707Z,21.90
2022-11-18T21:04:58.439Z,22.00
2022-11-18T21:07:26.291Z,22.00
2022-11-18T21:09:53.959Z,22.00
2022-11-18T21:12:21.625Z,22.10
2022-11-18T21:14:48.469Z,22.10
2022-11-18T21:17:16.171Z,22.20
2022-11-18T21:19:48.506Z,22.20
2022-11-18T21:22:15.465Z,22.20
2022-11-18T21:24:43.191Z,22.20
2022-11-18T21:27:10.914Z,22.20
2022-11-18T21:29:39.286Z,22.30
2022-11-18T21:32:07.127Z,22.30
2022-11-18T21:34:34.888Z,22.30
2022-11-18T21:37:05.260Z,22.40
2022-11-18T21:39:32.965Z,22.40
2022-11-18T21:42:00.958Z,22.40
2022-11-18T21:44:28.852Z,22.50
2022-11-18T21:46:57.054Z,22.50
2022-11-18T21:49:24.759Z,22.50
2022-11-18T21:51:52.451Z,22.60
2022-11-18T21:54:21.450Z,22.60
2022-11-18T21:56:49.282Z,22.60
2022-11-18T21:59:17.507Z,22.60
2022-11-18T22:01:45.334Z,22.70
2022-11-18T22:04:33.540Z,22.70
2022-11-18T22:07:01.250Z,22.80
2022-11-18T22:09:36.079Z,22.90
2022-11-18T22:12:05.303Z,22.90
2022-11-18T22:14:33.002Z,22.90
2022-11-18T22:17:00.740Z,22.90
2022-11-18T22:19:28.892Z,23.00
2022-11-18T22:21:56.607Z,23.00
2022-11-18T22:24:24.408Z,23.10
2022-11-18T22:26:53.417Z,23.10
2022-11-18T22:29:21.315Z,23.20
2022-11-18T22:31:49.191Z,23.20
2022-11-18T22:34:16.849Z,23.30
2022-11-18T22:36:44.483Z,23.30
2022-11-18T22:39:12.186Z,23.40
2022-11-18T22:41:57.513Z,23.40
2022-11-18T22:44:26.503Z,23.50
2022-11-18T22:46:54.243Z,23.50
2022-11-18T22:49:22.062Z,23.60
2022-11-18T22:51:50.049Z,23.60
2022-11-18T22:57:05.547Z,23.70
2022-11-18T22:59:34.564Z,23.70
2022-11-18T23:02:02.506Z,23.80
2022-11-18T23:04:30.232Z,23.80
2022-11-18T23:06:57.907Z,23.90
2022-11-18T23:09:25.589Z,23.90
2022-11-18T23:12:11.013Z,24.00
2022-11-18T23:14:40.026Z,24.10
2022-11-18T23:17:07.706Z,24.10
2022-11-18T23:19:36.851Z,24.20
2022-11-18T23:22:04.555Z,24.30
2022-11-18T23:24:32.202Z,24.30
2022-11-18T23:26:59.855Z,24.40
2022-11-18T23:29:27.530Z,24.40
2022-11-18T23:31:56.519Z,24.50
2022-11-18T23:34:24.175Z,24.60
2022-11-18T23:36:51.847Z,24.70
2022-11-18T23:39:19.746Z,24.80
2022-11-18T23:41:47.541Z,24.90
2022-11-18T23:44:15.206Z,24.90
2022-11-18T23:46:42.884Z,25.00
2022-11-18T23:49:12.486Z,25.10
2022-11-18T23:51:41.267Z,25.20
2022-11-18T23:54:09.320Z,25.30
2022-11-18T23:56:38.427Z,25.40
2022-11-18T23:59:06.446Z,25.50
